Time;durP1;ratioP1;P1;durP2;ratioP2;P2;SDS_P1;SDS_P2;PMS_P1;PMS_P2;Temp;Humidity;BMP_temperature;BMP_pressure;BME280_temperature;BME280_humidity;BME280_pressure;Samples;Min_cycle;Max_cycle;Signal;HPM_P1;HPM_P2
2022/06/05 00:00:03;;;;;;;0.2;0.2;;;;;;;19.6;100.0;101450;;;;
2022/06/05 00:01:10;;;;;;;0.2;0.2;;;;;;;19.6;100.0;101450;;;;
2022/06/05 00:02:03;;;;;;;0.2;0.2;;;;;;;19.6;100.0;101460;;;;
2022/06/05 00:03:01;;;;;;;0.2;0.2;;;;;;;19.6;100.0;101460;;;;
2022/06/05 00:04:03;;;;;;;0.9;0.6;;;;;;;19.5;100.0;101460;;;;
2022/06/05 00:05:10;;;;;;;0.9;0.6;;;;;;;19.5;100.0;101460;;;;
2022/06/05 00:06:10;;;;;;;0.9;0.6;;;;;;;19.4;100.0;101460;;;;
2022/06/05 00:07:05;;;;;;;0.9;0.6;;;;;;;19.4;100.0;101460;;;;
2022/06/05 00:08:08;;;;;;;0.9;0.6;;;;;;;19.5;100.0;101450;;;;
2022/06/05 00:09:10;;;;;;;0.9;0.6;;;;;;;19.5;100.0;101450;;;;
2022/06/05 00:10:10;;;;;;;0.9;0.6;;;;;;;19.3;100.0;101450;;;;
2022/06/05 00:11:00;;;;;;;0.9;0.6;;;;;;;19.3;100.0;101450;;;;
2022/06/05 00:12:10;;;;;;;0.9;0.6;;;;;;;19.3;100.0;101450;;;;
2022/06/05 00:13:10;;;;;;;0.9;0.6;;;;;;;19.3;100.0;101450;;;;
2022/06/05 00:14:00;;;;;;;0.9;0.6;;;;;;;19.4;100.0;101450;;;;
2022/06/05 00:15:01;;;;;;;0.9;0.6;;;;;;;19.4;100.0;101450;;;;
2022/06/05 00:16:00;;;;;;;0.9;0.6;;;;;;;19.3;100.0;101450;;;;
2022/06/05 00:17:00;;;;;;;0.9;0.6;;;;;;;19.3;100.0;101450;;;;
2022/06/05 00:18:01;;;;;;;0.9;0.6;;;;;;;19.1;100.0;101440;;;;
2022/06/05 00:19:00;;;;;;;0.9;0.6;;;;;;;19.1;100.0;101440;;;;
2022/06/05 00:20:00;;;;;;;0.9;0.6;;;;;;;19.4;100.0;101440;;;;
2022/06/05 00:21:00;;;;;;;0.9;0.6;;;;;;;19.4;100.0;101440;;;;
2022/06/05 00:22:00;;;;;;;0.9;0.6;;;;;;;19.4;100.0;101430;;;;
2022/06/05 00:23:00;;;;;;;0.9;0.6;;;;;;;19.4;100.0;101430;;;;
2022/06/05 00:24:00;;;;;;;0.5;0.5;;;;;;;19.2;100.0;101420;;;;
2022/06/05 00:25:00;;;;;;;0.5;0.5;;;;;;;19.2;100.0;101420;;;;
2022/06/05 00:26:10;;;;;;;0.5;0.5;;;;;;;19.1;100.0;101420;;;;
2022/06/05 00:27:10;;;;;;;0.5;0.5;;;;;;;19.1;100.0;101420;;;;
2022/06/05 00:28:09;;;;;;;0.5;0.5;;;;;;;19.2;100.0;101420;;;;
2022/06/05 00:29:07;;;;;;;0.5;0.5;;;;;;;19.2;100.0;101420;;;;
2022/06/05 00:30:01;;;;;;;0.5;0.5;;;;;;;19.2;100.0;101420;;;;
2022/06/05 00:31:10;;;;;;;0.5;0.5;;;;;;;19.2;100.0;101420;;;;
2022/06/05 00:32:10;;;;;;;0.5;0.5;;;;;;;19.0;100.0;101420;;;;
2022/06/05 00:33:05;;;;;;;0.5;0.5;;;;;;;19.0;100.0;101420;;;;
2022/06/05 00:34:00;;;;;;;0.5;0.5;;;;;;;19.2;100.0;101420;;;;
2022/06/05 00:35:00;;;;;;;0.5;0.5;;;;;;;19.2;100.0;101420;;;;
2022/06/05 00:36:10;;;;;;;0.5;0.5;;;;;;;19.1;100.0;101420;;;;
2022/06/05 00:37:10;;;;;;;0.5;0.5;;;;;;;19.1;100.0;101420;;;;
2022/06/05 00:38:05;;;;;;;0.5;0.5;;;;;;;19.1;100.0;101420;;;;
2022/06/05 00:39:01;;;;;;;0.5;0.5;;;;;;;19.1;100.0;101420;;;;
2022/06/05 00:40:07;;;;;;;0.5;0.5;;;;;;;19.0;100.0;101420;;;;
2022/06/05 00:41:10;;;;;;;0.5;0.5;;;;;;;19.0;100.0;101420;;;;
2022/06/05 00:42:03;;;;;;;0.5;0.5;;;;;;;19.0;100.0;101420;;;;
2022/06/05 00:43:01;;;;;;;0.5;0.5;;;;;;;19.0;100.0;101420;;;;
2022/06/05 00:44:02;;;;;;;0.6;0.6;;;;;;;19.1;100.0;101420;;;;
2022/06/05 00:45:05;;;;;;;0.6;0.6;;;;;;;19.1;100.0;101420;;;;
2022/06/05 00:46:00;;;;;;;0.6;0.6;;;;;;;18.9;100.0;101410;;;;
2022/06/05 00:47:00;;;;;;;0.6;0.6;;;;;;;18.9;100.0;101410;;;;
2022/06/05 00:48:00;;;;;;;0.6;0.6;;;;;;;19.0;100.0;101410;;;;
2022/06/05 00:49:01;;;;;;;0.6;0.6;;;;;;;19.0;100.0;101410;;;;
2022/06/05 00:50:04;;;;;;;0.6;0.6;;;;;;;19.0;100.0;101410;;;;
2022/06/05 00:51:00;;;;;;;0.6;0.6;;;;;;;19.0;100.0;101410;;;;
2022/06/05 00:52:00;;;;;;;0.6;0.6;;;;;;;19.0;100.0;101400;;;;
2022/06/05 00:53:02;;;;;;;0.6;0.6;;;;;;;19.0;100.0;101400;;;;
2022/06/05 00:54:00;;;;;;;0.6;0.6;;;;;;;18.9;100.0;101410;;;;
2022/06/05 00:55:00;;;;;;;0.6;0.6;;;;;;;18.9;100.0;101410;;;;
2022/06/05 00:56:00;;;;;;;0.6;0.6;;;;;;;18.9;100.0;101400;;;;
2022/06/05 00:57:00;;;;;;;0.6;0.6;;;;;;;18.9;100.0;101400;;;;
2022/06/05 00:58:00;;;;;;;0.6;0.6;;;;;;;18.9;100.0;101400;;;;
2022/06/05 00:59:00;;;;;;;0.6;0.6;;;;;;;18.9;100.0;101400;;;;
2022/06/05 01:00:02;;;;;;;0.6;0.6;;;;;;;18.8;100.0;101400;;;;
2022/06/05 01:01:01;;;;;;;0.6;0.6;;;;;;;18.8;100.0;101400;;;;
2022/06/05 01:02:00;;;;;;;0.6;0.6;;;;;;;18.9;100.0;101400;;;;
2022/06/05 01:03:02;;;;;;;0.6;0.6;;;;;;;18.9;100.0;101400;;;;
2022/06/05 01:04:01;;;;;;;1.2;0.9;;;;;;;18.8;100.0;101400;;;;
2022/06/05 01:05:00;;;;;;;1.2;0.9;;;;;;;18.8;100.0;101400;;;;
2022/06/05 01:06:00;;;;;;;1.2;0.9;;;;;;;18.9;100.0;101390;;;;
2022/06/05 01:07:00;;;;;;;1.2;0.9;;;;;;;18.9;100.0;101390;;;;
2022/06/05 01:08:00;;;;;;;1.2;0.9;;;;;;;18.9;100.0;101400;;;;
2022/06/05 01:09:00;;;;;;;1.2;0.9;;;;;;;18.9;100.0;101400;;;;
2022/06/05 01:10:00;;;;;;;1.2;0.9;;;;;;;18.8;100.0;101400;;;;
2022/06/05 01:11:06;;;;;;;1.2;0.9;;;;;;;18.8;100.0;101400;;;;
2022/06/05 01:12:10;;;;;;;1.2;0.9;;;;;;;18.5;100.0;101400;;;;
2022/06/05 01:13:08;;;;;;;1.2;0.9;;;;;;;18.5;100.0;101400;;;;
2022/06/05 01:14:10;;;;;;;1.2;0.9;;;;;;;18.6;100.0;101400;;;;
2022/06/05 01:15:00;;;;;;;1.2;0.9;;;;;;;18.6;100.0;101400;;;;
2022/06/05 01:16:10;;;;;;;1.2;0.9;;;;;;;18.5;100.0;101400;;;;
2022/06/05 01:17:10;;;;;;;1.2;0.9;;;;;;;18.5;100.0;101400;;;;
2022/06/05 01:18:03;;;;;;;1.2;0.9;;;;;;;18.7;100.0;101400;;;;
2022/06/05 01:19:10;;;;;;;1.2;0.9;;;;;;;18.7;100.0;101400;;;;
2022/06/05 01:20:01;;;;;;;1.2;0.9;;;;;;;18.7;100.0;101400;;;;
2022/06/05 01:21:07;;;;;;;1.2;0.9;;;;;;;18.7;100.0;101400;;;;
2022/06/05 01:22:10;;;;;;;1.2;0.9;;;;;;;18.6;100.0;101400;;;;
2022/06/05 01:23:03;;;;;;;1.2;0.9;;;;;;;18.6;100.0;101400;;;;
2022/06/05 01:24:09;;;;;;;0.4;0.4;;;;;;;18.5;100.0;101390;;;;
2022/06/05 01:25:01;;;;;;;0.4;0.4;;;;;;;18.5;100.0;101390;;;;
2022/06/05 01:26:05;;;;;;;0.4;0.4;;;;;;;18.6;100.0;101390;;;;
2022/06/05 01:27:01;;;;;;;0.4;0.4;;;;;;;18.6;100.0;101390;;;;
2022/06/05 01:28:07;;;;;;;0.4;0.4;;;;;;;18.6;100.0;101390;;;;
2022/06/05 01:29:08;;;;;;;0.4;0.4;;;;;;;18.6;100.0;101390;;;;
2022/06/05 01:30:08;;;;;;;0.4;0.4;;;;;;;18.6;100.0;101390;;;;
2022/06/05 01:31:10;;;;;;;0.4;0.4;;;;;;;18.6;100.0;101390;;;;
2022/06/05 01:32:06;;;;;;;0.4;0.4;;;;;;;18.5;100.0;101380;;;;
2022/06/05 01:33:07;;;;;;;0.4;0.4;;;;;;;18.5;100.0;101380;;;;
2022/06/05 01:34:01;;;;;;;0.4;0.4;;;;;;;18.6;100.0;101380;;;;
2022/06/05 01:35:05;;;;;;;0.4;0.4;;;;;;;18.6;100.0;101380;;;;
2022/06/05 01:36:08;;;;;;;0.4;0.4;;;;;;;18.4;100.0;101380;;;;
2022/06/05 01:37:03;;;;;;;0.4;0.4;;;;;;;18.4;100.0;101380;;;;
2022/06/05 01:38:02;;;;;;;0.4;0.4;;;;;;;18.5;100.0;101380;;;;
2022/06/05 01:39:08;;;;;;;0.4;0.4;;;;;;;18.5;100.0;101380;;;;
2022/06/05 01:40:10;;;;;;;0.4;0.4;;;;;;;18.5;100.0;101380;;;;
2022/06/05 01:41:03;;;;;;;0.4;0.4;;;;;;;18.5;100.0;101380;;;;
2022/06/05 01:42:04;;;;;;;0.4;0.4;;;;;;;18.4;100.0;101370;;;;
2022/06/05 01:43:04;;;;;;;0.4;0.4;;;;;;;18.4;100.0;101370;;;;
2022/06/05 01:44:03;;;;;;;0.3;0.3;;;;;;;18.4;100.0;101360;;;;
2022/06/05 01:45:04;;;;;;;0.3;0.3;;;;;;;18.4;100.0;101360;;;;
2022/06/05 01:46:07;;;;;;;0.3;0.3;;;;;;;18.3;100.0;101360;;;;
2022/06/05 01:47:04;;;;;;;0.3;0.3;;;;;;;18.3;100.0;101360;;;;
2022/06/05 01:48:00;;;;;;;0.3;0.3;;;;;;;18.4;100.0;101360;;;;
2022/06/05 01:49:01;;;;;;;0.3;0.3;;;;;;;18.4;100.0;101360;;;;
2022/06/05 01:50:03;;;;;;;0.3;0.3;;;;;;;18.4;100.0;101360;;;;
2022/06/05 01:51:03;;;;;;;0.3;0.3;;;;;;;18.4;100.0;101360;;;;
2022/06/05 01:52:03;;;;;;;0.3;0.3;;;;;;;18.4;100.0;101360;;;;
2022/06/05 01:53:06;;;;;;;0.3;0.3;;;;;;;18.4;100.0;101360;;;;
2022/06/05 01:54:02;;;;;;;0.3;0.3;;;;;;;18.5;100.0;101370;;;;
2022/06/05 01:55:05;;;;;;;0.3;0.3;;;;;;;18.5;100.0;101370;;;;
2022/06/05 01:56:04;;;;;;;0.3;0.3;;;;;;;18.5;100.0;101370;;;;
2022/06/05 01:57:03;;;;;;;0.3;0.3;;;;;;;18.5;100.0;101370;;;;
2022/06/05 01:58:02;;;;;;;0.3;0.3;;;;;;;18.4;100.0;101370;;;;
2022/06/05 01:59:04;;;;;;;0.3;0.3;;;;;;;18.4;100.0;101370;;;;
2022/06/05 02:00:01;;;;;;;0.3;0.3;;;;;;;18.4;100.0;101360;;;;
2022/06/05 02:01:02;;;;;;;0.3;0.3;;;;;;;18.4;100.0;101360;;;;
2022/06/05 02:02:02;;;;;;;0.3;0.3;;;;;;;18.4;100.0;101360;;;;
2022/06/05 02:03:04;;;;;;;0.3;0.3;;;;;;;18.4;100.0;101360;;;;
2022/06/05 02:04:05;;;;;;;0.4;0.4;;;;;;;18.3;100.0;101360;;;;
2022/06/05 02:05:02;;;;;;;0.4;0.4;;;;;;;18.3;100.0;101360;;;;
2022/06/05 02:06:02;;;;;;;0.4;0.4;;;;;;;18.3;100.0;101360;;;;
2022/06/05 02:07:04;;;;;;;0.4;0.4;;;;;;;18.3;100.0;101360;;;;
2022/06/05 02:08:06;;;;;;;0.4;0.4;;;;;;;18.4;100.0;101360;;;;
2022/06/05 02:09:11;;;;;;;0.4;0.4;;;;;;;18.4;100.0;101360;;;;
2022/06/05 02:10:05;;;;;;;0.4;0.4;;;;;;;18.6;100.0;101360;;;;
2022/06/05 02:11:10;;;;;;;0.4;0.4;;;;;;;18.6;100.0;101360;;;;
2022/06/05 02:12:01;;;;;;;0.4;0.4;;;;;;;18.5;100.0;101360;;;;
2022/06/05 02:13:01;;;;;;;0.4;0.4;;;;;;;18.5;100.0;101360;;;;
2022/06/05 02:14:02;;;;;;;0.4;0.4;;;;;;;18.5;100.0;101360;;;;
2022/06/05 02:15:01;;;;;;;0.4;0.4;;;;;;;18.5;100.0;101360;;;;
2022/06/05 02:16:00;;;;;;;0.4;0.4;;;;;;;18.7;100.0;101360;;;;
2022/06/05 02:17:00;;;;;;;0.4;0.4;;;;;;;18.7;100.0;101360;;;;
2022/06/05 02:18:00;;;;;;;0.4;0.4;;;;;;;18.7;100.0;101350;;;;
2022/06/05 02:19:01;;;;;;;0.4;0.4;;;;;;;18.7;100.0;101350;;;;
2022/06/05 02:20:00;;;;;;;0.4;0.4;;;;;;;18.5;100.0;101340;;;;
2022/06/05 02:21:01;;;;;;;0.4;0.4;;;;;;;18.5;100.0;101340;;;;
2022/06/05 02:22:02;;;;;;;0.4;0.4;;;;;;;18.4;100.0;101330;;;;
2022/06/05 02:23:01;;;;;;;0.4;0.4;;;;;;;18.4;100.0;101330;;;;
2022/06/05 02:24:00;;;;;;;0.4;0.4;;;;;;;18.2;100.0;101320;;;;
2022/06/05 02:25:00;;;;;;;0.4;0.4;;;;;;;18.2;100.0;101320;;;;
2022/06/05 02:26:01;;;;;;;0.4;0.4;;;;;;;18.3;100.0;101320;;;;
2022/06/05 02:27:01;;;;;;;0.4;0.4;;;;;;;18.3;100.0;101320;;;;
2022/06/05 02:28:01;;;;;;;0.4;0.4;;;;;;;18.3;100.0;101320;;;;
2022/06/05 02:29:02;;;;;;;0.4;0.4;;;;;;;18.3;100.0;101320;;;;
2022/06/05 02:30:00;;;;;;;0.4;0.4;;;;;;;18.3;100.0;101320;;;;
2022/06/05 02:31:10;;;;;;;0.4;0.4;;;;;;;18.3;100.0;101320;;;;
2022/06/05 02:32:00;;;;;;;0.4;0.4;;;;;;;18.1;100.0;101320;;;;
2022/06/05 02:33:10;;;;;;;0.4;0.4;;;;;;;18.1;100.0;101320;;;;
2022/06/05 02:34:10;;;;;;;0.4;0.4;;;;;;;18.2;100.0;101310;;;;
2022/06/05 02:35:10;;;;;;;0.4;0.4;;;;;;;18.2;100.0;101310;;;;
2022/06/05 02:36:07;;;;;;;0.4;0.4;;;;;;;18.0;100.0;101300;;;;
2022/06/05 02:37:00;;;;;;;0.4;0.4;;;;;;;18.0;100.0;101300;;;;
2022/06/05 02:38:00;;;;;;;0.4;0.4;;;;;;;18.0;100.0;101290;;;;
2022/06/05 02:39:07;;;;;;;0.4;0.4;;;;;;;18.0;100.0;101290;;;;
2022/06/05 02:40:00;;;;;;;0.4;0.4;;;;;;;17.9;100.0;101280;;;;
2022/06/05 02:41:06;;;;;;;0.4;0.4;;;;;;;17.9;100.0;101280;;;;
2022/06/05 02:42:10;;;;;;;0.4;0.4;;;;;;;17.8;100.0;101280;;;;
2022/06/05 02:43:03;;;;;;;0.4;0.4;;;;;;;17.8;100.0;101280;;;;
2022/06/05 02:45:10;;;;;;;0.8;0.7;;;;;;;17.9;100.0;101280;;;;
2022/06/05 02:46:00;;;;;;;0.8;0.7;;;;;;;17.8;100.0;101280;;;;
2022/06/05 02:47:10;;;;;;;0.8;0.7;;;;;;;17.8;100.0;101280;;;;
2022/06/05 02:48:08;;;;;;;0.8;0.7;;;;;;;18.0;100.0;101270;;;;
2022/06/05 02:49:07;;;;;;;0.8;0.7;;;;;;;18.0;100.0;101270;;;;
2022/06/05 02:50:00;;;;;;;0.8;0.7;;;;;;;17.9;100.0;101270;;;;
2022/06/05 02:51:13;;;;;;;0.8;0.7;;;;;;;17.9;100.0;101270;;;;
2022/06/05 02:52:03;;;;;;;0.8;0.7;;;;;;;17.8;100.0;101270;;;;
2022/06/05 02:53:01;;;;;;;0.8;0.7;;;;;;;17.8;100.0;101270;;;;
2022/06/05 02:54:00;;;;;;;0.8;0.7;;;;;;;17.8;100.0;101260;;;;
2022/06/05 02:55:04;;;;;;;0.8;0.7;;;;;;;17.8;100.0;101260;;;;
2022/06/05 02:56:05;;;;;;;0.8;0.7;;;;;;;17.6;100.0;101260;;;;
2022/06/05 02:57:00;;;;;;;0.8;0.7;;;;;;;17.6;100.0;101260;;;;
2022/06/05 02:58:00;;;;;;;0.8;0.7;;;;;;;17.6;100.0;101260;;;;
2022/06/05 02:59:02;;;;;;;0.8;0.7;;;;;;;17.6;100.0;101260;;;;
2022/06/05 03:00:00;;;;;;;0.8;0.7;;;;;;;17.7;100.0;101250;;;;
2022/06/05 03:04:00;;;;;;;0.5;0.5;;;;;;;17.8;100.0;101250;;;;
2022/06/05 03:05:00;;;;;;;0.5;0.5;;;;;;;17.8;100.0;101250;;;;
2022/06/05 03:06:01;;;;;;;0.5;0.5;;;;;;;17.9;100.0;101250;;;;
2022/06/05 03:07:00;;;;;;;0.5;0.5;;;;;;;17.9;100.0;101250;;;;
2022/06/05 03:08:00;;;;;;;0.5;0.5;;;;;;;18.0;100.0;101250;;;;
2022/06/05 03:09:00;;;;;;;0.5;0.5;;;;;;;18.0;100.0;101250;;;;
2022/06/05 03:10:00;;;;;;;0.5;0.5;;;;;;;17.9;100.0;101250;;;;
2022/06/05 03:11:00;;;;;;;0.5;0.5;;;;;;;17.9;100.0;101250;;;;
2022/06/05 03:12:01;;;;;;;0.5;0.5;;;;;;;18.0;100.0;101250;;;;
2022/06/05 03:13:01;;;;;;;0.5;0.5;;;;;;;18.0;100.0;101250;;;;
2022/06/05 03:14:00;;;;;;;0.5;0.5;;;;;;;17.9;100.0;101250;;;;
2022/06/05 03:15:01;;;;;;;0.5;0.5;;;;;;;17.9;100.0;101250;;;;
2022/06/05 03:16:00;;;;;;;0.5;0.5;;;;;;;18.1;100.0;101250;;;;
2022/06/05 03:17:00;;;;;;;0.5;0.5;;;;;;;18.1;100.0;101250;;;;
2022/06/05 03:18:00;;;;;;;0.5;0.5;;;;;;;18.1;100.0;101260;;;;
2022/06/05 03:19:00;;;;;;;0.5;0.5;;;;;;;18.1;100.0;101260;;;;
2022/06/05 03:20:00;;;;;;;0.5;0.5;;;;;;;18.1;100.0;101260;;;;
2022/06/05 03:21:00;;;;;;;0.5;0.5;;;;;;;18.1;100.0;101260;;;;
2022/06/05 03:22:00;;;;;;;0.5;0.5;;;;;;;18.1;100.0;101260;;;;
2022/06/05 03:23:00;;;;;;;0.5;0.5;;;;;;;18.1;100.0;101260;;;;
2022/06/05 03:24:00;;;;;;;0.4;0.4;;;;;;;18.1;100.0;101260;;;;
2022/06/05 03:25:00;;;;;;;0.4;0.4;;;;;;;18.1;100.0;101260;;;;
2022/06/05 03:26:00;;;;;;;0.4;0.4;;;;;;;17.9;100.0;101260;;;;
2022/06/05 03:27:00;;;;;;;0.4;0.4;;;;;;;17.9;100.0;101260;;;;
2022/06/05 03:28:00;;;;;;;0.4;0.4;;;;;;;17.9;100.0;101250;;;;
2022/06/05 03:29:00;;;;;;;0.4;0.4;;;;;;;17.9;100.0;101250;;;;
2022/06/05 03:30:00;;;;;;;0.4;0.4;;;;;;;17.9;100.0;101250;;;;
2022/06/05 03:31:02;;;;;;;0.4;0.4;;;;;;;17.9;100.0;101250;;;;
2022/06/05 03:32:00;;;;;;;0.4;0.4;;;;;;;18.0;100.0;101240;;;;
2022/06/05 03:33:00;;;;;;;0.4;0.4;;;;;;;18.0;100.0;101240;;;;
2022/06/05 03:34:00;;;;;;;0.4;0.4;;;;;;;17.9;100.0;101230;;;;
2022/06/05 03:35:00;;;;;;;0.4;0.4;;;;;;;17.9;100.0;101230;;;;
2022/06/05 03:36:00;;;;;;;0.4;0.4;;;;;;;17.8;100.0;101230;;;;
2022/06/05 03:37:00;;;;;;;0.4;0.4;;;;;;;17.8;100.0;101230;;;;
2022/06/05 03:38:00;;;;;;;0.4;0.4;;;;;;;17.6;100.0;101230;;;;
2022/06/05 03:39:00;;;;;;;0.4;0.4;;;;;;;17.6;100.0;101230;;;;
2022/06/05 03:40:00;;;;;;;0.4;0.4;;;;;;;17.7;100.0;101220;;;;
2022/06/05 03:41:00;;;;;;;0.4;0.4;;;;;;;17.7;100.0;101220;;;;
2022/06/05 03:42:00;;;;;;;0.4;0.4;;;;;;;17.6;100.0;101220;;;;
2022/06/05 03:43:00;;;;;;;0.4;0.4;;;;;;;17.6;100.0;101220;;;;
2022/06/05 03:44:00;;;;;;;0.2;0.2;;;;;;;17.8;100.0;101220;;;;
2022/06/05 03:45:00;;;;;;;0.2;0.2;;;;;;;17.8;100.0;101220;;;;
2022/06/05 03:46:01;;;;;;;0.2;0.2;;;;;;;17.6;100.0;101220;;;;
2022/06/05 03:47:00;;;;;;;0.2;0.2;;;;;;;17.6;100.0;101220;;;;
2022/06/05 03:48:00;;;;;;;0.2;0.2;;;;;;;17.4;100.0;101230;;;;
2022/06/05 03:49:00;;;;;;;0.2;0.2;;;;;;;17.4;100.0;101230;;;;
2022/06/05 03:50:00;;;;;;;0.2;0.2;;;;;;;17.6;100.0;101220;;;;
2022/06/05 03:51:04;;;;;;;0.2;0.2;;;;;;;17.6;100.0;101220;;;;
2022/06/05 03:52:00;;;;;;;0.2;0.2;;;;;;;17.7;100.0;101230;;;;
2022/06/05 03:53:00;;;;;;;0.2;0.2;;;;;;;17.7;100.0;101230;;;;
2022/06/05 03:54:00;;;;;;;0.2;0.2;;;;;;;17.8;100.0;101230;;;;
2022/06/05 03:55:00;;;;;;;0.2;0.2;;;;;;;17.8;100.0;101230;;;;
2022/06/05 03:56:00;;;;;;;0.2;0.2;;;;;;;17.6;100.0;101230;;;;
2022/06/05 03:57:01;;;;;;;0.2;0.2;;;;;;;17.6;100.0;101230;;;;
2022/06/05 03:58:00;;;;;;;0.2;0.2;;;;;;;17.7;100.0;101230;;;;
2022/06/05 03:59:00;;;;;;;0.2;0.2;;;;;;;17.7;100.0;101230;;;;
2022/06/05 04:00:00;;;;;;;0.2;0.2;;;;;;;17.6;100.0;101230;;;;
2022/06/05 04:01:00;;;;;;;0.2;0.2;;;;;;;17.6;100.0;101230;;;;
2022/06/05 04:02:00;;;;;;;0.2;0.2;;;;;;;17.6;100.0;101230;;;;
2022/06/05 04:03:00;;;;;;;0.2;0.2;;;;;;;17.6;100.0;101230;;;;
2022/06/05 04:04:00;;;;;;;0.5;0.5;;;;;;;17.5;100.0;101240;;;;
2022/06/05 04:05:00;;;;;;;0.5;0.5;;;;;;;17.5;100.0;101240;;;;
2022/06/05 04:06:00;;;;;;;0.5;0.5;;;;;;;17.5;100.0;101240;;;;
2022/06/05 04:07:00;;;;;;;0.5;0.5;;;;;;;17.5;100.0;101240;;;;
2022/06/05 04:08:00;;;;;;;0.5;0.5;;;;;;;17.6;100.0;101240;;;;
2022/06/05 04:09:01;;;;;;;0.5;0.5;;;;;;;17.6;100.0;101240;;;;
2022/06/05 04:10:00;;;;;;;0.5;0.5;;;;;;;17.6;100.0;101240;;;;
2022/06/05 04:11:04;;;;;;;0.5;0.5;;;;;;;17.6;100.0;101240;;;;
2022/06/05 04:12:00;;;;;;;0.5;0.5;;;;;;;17.3;100.0;101240;;;;
2022/06/05 04:13:00;;;;;;;0.5;0.5;;;;;;;17.3;100.0;101240;;;;
2022/06/05 04:14:00;;;;;;;0.5;0.5;;;;;;;17.4;100.0;101240;;;;
2022/06/05 04:15:00;;;;;;;0.5;0.5;;;;;;;17.4;100.0;101240;;;;
2022/06/05 04:16:00;;;;;;;0.5;0.5;;;;;;;17.3;100.0;101230;;;;
2022/06/05 04:17:00;;;;;;;0.5;0.5;;;;;;;17.3;100.0;101230;;;;
2022/06/05 04:18:00;;;;;;;0.5;0.5;;;;;;;17.4;100.0;101230;;;;
2022/06/05 04:19:00;;;;;;;0.5;0.5;;;;;;;17.4;100.0;101230;;;;
2022/06/05 04:20:00;;;;;;;0.5;0.5;;;;;;;17.2;100.0;101240;;;;
2022/06/05 04:21:04;;;;;;;0.5;0.5;;;;;;;17.2;100.0;101240;;;;
2022/06/05 04:22:00;;;;;;;0.5;0.5;;;;;;;17.3;100.0;101230;;;;
2022/06/05 04:23:01;;;;;;;0.4;0.4;;;;;;;17.3;100.0;101230;;;;
2022/06/05 04:24:00;;;;;;;0.4;0.4;;;;;;;17.2;100.0;101230;;;;
2022/06/05 04:25:00;;;;;;;0.4;0.4;;;;;;;17.2;100.0;101230;;;;
2022/06/05 04:26:00;;;;;;;0.4;0.4;;;;;;;17.2;100.0;101230;;;;
2022/06/05 04:27:00;;;;;;;0.4;0.4;;;;;;;17.2;100.0;101230;;;;
2022/06/05 04:28:00;;;;;;;0.4;0.4;;;;;;;17.2;100.0;101230;;;;
2022/06/05 04:29:00;;;;;;;0.4;0.4;;;;;;;17.2;100.0;101230;;;;
2022/06/05 04:30:00;;;;;;;0.4;0.4;;;;;;;17.3;100.0;101230;;;;
2022/06/05 04:31:00;;;;;;;0.4;0.4;;;;;;;17.3;100.0;101230;;;;
2022/06/05 04:32:00;;;;;;;0.4;0.4;;;;;;;17.2;100.0;101220;;;;
2022/06/05 04:33:00;;;;;;;0.4;0.4;;;;;;;17.2;100.0;101220;;;;
2022/06/05 04:34:01;;;;;;;0.4;0.4;;;;;;;17.1;100.0;101220;;;;
2022/06/05 04:35:00;;;;;;;0.4;0.4;;;;;;;17.1;100.0;101220;;;;
2022/06/05 04:36:00;;;;;;;0.4;0.4;;;;;;;17.2;100.0;101220;;;;
2022/06/05 04:37:00;;;;;;;0.4;0.4;;;;;;;17.2;100.0;101220;;;;
2022/06/05 04:38:00;;;;;;;0.4;0.4;;;;;;;17.3;100.0;101220;;;;
2022/06/05 04:39:00;;;;;;;0.4;0.4;;;;;;;17.3;100.0;101220;;;;
2022/06/05 04:40:00;;;;;;;0.4;0.4;;;;;;;17.1;100.0;101220;;;;
2022/06/05 04:41:00;;;;;;;0.4;0.4;;;;;;;17.1;100.0;101220;;;;
2022/06/05 04:42:00;;;;;;;0.4;0.4;;;;;;;17.2;100.0;101210;;;;
2022/06/05 04:43:00;;;;;;;0.2;0.2;;;;;;;17.2;100.0;101210;;;;
2022/06/05 04:44:00;;;;;;;0.2;0.2;;;;;;;17.3;100.0;101210;;;;
2022/06/05 04:45:00;;;;;;;0.2;0.2;;;;;;;17.3;100.0;101210;;;;
2022/06/05 04:46:00;;;;;;;0.2;0.2;;;;;;;17.3;100.0;101220;;;;
2022/06/05 04:47:00;;;;;;;0.2;0.2;;;;;;;17.3;100.0;101220;;;;
2022/06/05 04:48:00;;;;;;;0.2;0.2;;;;;;;17.3;100.0;101210;;;;
2022/06/05 04:49:00;;;;;;;0.2;0.2;;;;;;;17.3;100.0;101210;;;;
2022/06/05 04:50:00;;;;;;;0.2;0.2;;;;;;;17.3;100.0;101220;;;;
2022/06/05 04:51:08;;;;;;;0.2;0.2;;;;;;;17.3;100.0;101220;;;;
2022/06/05 04:52:00;;;;;;;0.2;0.2;;;;;;;17.3;100.0;101220;;;;
2022/06/05 04:53:00;;;;;;;0.2;0.2;;;;;;;17.3;100.0;101220;;;;
2022/06/05 04:54:01;;;;;;;0.2;0.2;;;;;;;17.3;100.0;101210;;;;
2022/06/05 04:55:00;;;;;;;0.2;0.2;;;;;;;17.3;100.0;101210;;;;
2022/06/05 04:56:04;;;;;;;0.2;0.2;;;;;;;17.4;100.0;101210;;;;
2022/06/05 04:57:00;;;;;;;0.2;0.2;;;;;;;17.4;100.0;101210;;;;
2022/06/05 04:58:00;;;;;;;0.2;0.2;;;;;;;17.4;100.0;101210;;;;
2022/06/05 04:59:07;;;;;;;0.2;0.2;;;;;;;17.4;100.0;101210;;;;
2022/06/05 05:00:00;;;;;;;0.2;0.2;;;;;;;17.4;100.0;101210;;;;
2022/06/05 05:01:00;;;;;;;0.2;0.2;;;;;;;17.4;100.0;101210;;;;
2022/06/05 05:02:00;;;;;;;0.2;0.2;;;;;;;17.3;100.0;101210;;;;
2022/06/05 05:03:00;;;;;;;0.5;0.4;;;;;;;17.3;100.0;101210;;;;
2022/06/05 05:04:01;;;;;;;0.5;0.4;;;;;;;17.4;100.0;101210;;;;
2022/06/05 05:05:00;;;;;;;0.5;0.4;;;;;;;17.4;100.0;101210;;;;
2022/06/05 05:06:00;;;;;;;0.5;0.4;;;;;;;17.5;100.0;101200;;;;
2022/06/05 05:07:00;;;;;;;0.5;0.4;;;;;;;17.5;100.0;101200;;;;
2022/06/05 05:08:00;;;;;;;0.5;0.4;;;;;;;17.4;100.0;101210;;;;
2022/06/05 05:09:00;;;;;;;0.5;0.4;;;;;;;17.4;100.0;101210;;;;
2022/06/05 05:10:00;;;;;;;0.5;0.4;;;;;;;17.4;100.0;101210;;;;
2022/06/05 05:11:00;;;;;;;0.5;0.4;;;;;;;17.4;100.0;101210;;;;
2022/06/05 05:12:00;;;;;;;0.5;0.4;;;;;;;17.5;100.0;101210;;;;
2022/06/05 05:13:00;;;;;;;0.5;0.4;;;;;;;17.5;100.0;101210;;;;
2022/06/05 05:14:00;;;;;;;0.5;0.4;;;;;;;17.3;100.0;101210;;;;
2022/06/05 05:15:00;;;;;;;0.5;0.4;;;;;;;17.3;100.0;101210;;;;
2022/06/05 05:16:00;;;;;;;0.5;0.4;;;;;;;17.3;100.0;101210;;;;
2022/06/05 05:17:00;;;;;;;0.5;0.4;;;;;;;17.3;100.0;101210;;;;
2022/06/05 05:18:00;;;;;;;0.5;0.4;;;;;;;17.3;100.0;101200;;;;
2022/06/05 05:19:00;;;;;;;0.5;0.4;;;;;;;17.3;100.0;101200;;;;
2022/06/05 05:20:00;;;;;;;0.5;0.4;;;;;;;17.3;100.0;101210;;;;
2022/06/05 05:21:10;;;;;;;0.5;0.4;;;;;;;17.3;100.0;101210;;;;
2022/06/05 05:22:00;;;;;;;0.5;0.4;;;;;;;17.3;100.0;101210;;;;
2022/06/05 05:23:00;;;;;;;3.2;1.0;;;;;;;17.3;100.0;101210;;;;
2022/06/05 05:24:00;;;;;;;3.2;1.0;;;;;;;17.3;100.0;101210;;;;
2022/06/05 05:25:00;;;;;;;3.2;1.0;;;;;;;17.3;100.0;101210;;;;
2022/06/05 05:26:10;;;;;;;3.2;1.0;;;;;;;17.4;100.0;101210;;;;
2022/06/05 05:27:00;;;;;;;3.2;1.0;;;;;;;17.4;100.0;101210;;;;
2022/06/05 05:28:00;;;;;;;3.2;1.0;;;;;;;17.4;100.0;101220;;;;
2022/06/05 05:29:01;;;;;;;3.2;1.0;;;;;;;17.4;100.0;101220;;;;
2022/06/05 05:30:00;;;;;;;3.2;1.0;;;;;;;17.4;100.0;101220;;;;
2022/06/05 05:31:00;;;;;;;3.2;1.0;;;;;;;17.4;100.0;101220;;;;
2022/06/05 05:32:00;;;;;;;3.2;1.0;;;;;;;17.3;100.0;101220;;;;
2022/06/05 05:33:00;;;;;;;3.2;1.0;;;;;;;17.3;100.0;101220;;;;
2022/06/05 05:34:00;;;;;;;3.2;1.0;;;;;;;17.5;100.0;101220;;;;
2022/06/05 05:35:00;;;;;;;3.2;1.0;;;;;;;17.5;100.0;101220;;;;
2022/06/05 05:36:00;;;;;;;3.2;1.0;;;;;;;17.5;100.0;101220;;;;
2022/06/05 05:37:00;;;;;;;3.2;1.0;;;;;;;17.5;100.0;101220;;;;
2022/06/05 05:38:00;;;;;;;3.2;1.0;;;;;;;17.4;100.0;101220;;;;
2022/06/05 05:42:05;;;;;;;3.2;1.0;;;;;;;17.4;100.0;101220;;;;
2022/06/05 05:43:00;;;;;;;0.5;0.5;;;;;;;17.4;100.0;101220;;;;
2022/06/05 05:44:00;;;;;;;0.5;0.5;;;;;;;17.4;100.0;101210;;;;
2022/06/05 05:45:00;;;;;;;0.5;0.5;;;;;;;17.4;100.0;101210;;;;
2022/06/05 05:46:00;;;;;;;0.5;0.5;;;;;;;17.6;100.0;101210;;;;
2022/06/05 05:47:00;;;;;;;0.5;0.5;;;;;;;17.6;100.0;101210;;;;
2022/06/05 05:48:00;;;;;;;0.5;0.5;;;;;;;17.6;100.0;101210;;;;
2022/06/05 05:49:00;;;;;;;0.5;0.5;;;;;;;17.6;100.0;101210;;;;
2022/06/05 05:50:02;;;;;;;0.5;0.5;;;;;;;17.6;100.0;101210;;;;
2022/06/05 05:51:00;;;;;;;0.5;0.5;;;;;;;17.6;100.0;101210;;;;
2022/06/05 05:52:00;;;;;;;0.5;0.5;;;;;;;17.6;100.0;101210;;;;
2022/06/05 05:53:00;;;;;;;0.5;0.5;;;;;;;17.6;100.0;101210;;;;
2022/06/05 05:54:00;;;;;;;0.5;0.5;;;;;;;17.6;100.0;101210;;;;
2022/06/05 05:55:01;;;;;;;0.5;0.5;;;;;;;17.6;100.0;101210;;;;
2022/06/05 05:56:05;;;;;;;0.5;0.5;;;;;;;17.6;100.0;101210;;;;
2022/06/05 05:57:00;;;;;;;0.5;0.5;;;;;;;17.6;100.0;101210;;;;
2022/06/05 05:58:00;;;;;;;0.5;0.5;;;;;;;17.7;100.0;101210;;;;
2022/06/05 05:59:00;;;;;;;0.5;0.5;;;;;;;17.7;100.0;101210;;;;
2022/06/05 06:00:00;;;;;;;0.5;0.5;;;;;;;17.8;100.0;101210;;;;
2022/06/05 06:01:01;;;;;;;0.5;0.5;;;;;;;17.8;100.0;101210;;;;
2022/06/05 06:02:00;;;;;;;0.5;0.5;;;;;;;17.9;100.0;101210;;;;
2022/06/05 06:03:07;;;;;;;0.7;0.7;;;;;;;17.9;100.0;101210;;;;
2022/06/05 06:04:00;;;;;;;0.7;0.7;;;;;;;18.0;100.0;101200;;;;
2022/06/05 06:05:00;;;;;;;0.7;0.7;;;;;;;18.0;100.0;101200;;;;
2022/06/05 06:06:00;;;;;;;0.7;0.7;;;;;;;18.0;100.0;101200;;;;
2022/06/05 06:07:00;;;;;;;0.7;0.7;;;;;;;18.0;100.0;101200;;;;
2022/06/05 06:08:00;;;;;;;0.7;0.7;;;;;;;18.0;100.0;101200;;;;
2022/06/05 06:09:00;;;;;;;0.7;0.7;;;;;;;18.0;100.0;101200;;;;
2022/06/05 06:10:00;;;;;;;0.7;0.7;;;;;;;18.1;100.0;101190;;;;
2022/06/05 06:11:00;;;;;;;0.7;0.7;;;;;;;18.1;100.0;101190;;;;
2022/06/05 06:12:00;;;;;;;0.7;0.7;;;;;;;18.2;100.0;101190;;;;
2022/06/05 06:13:00;;;;;;;0.7;0.7;;;;;;;18.2;100.0;101190;;;;
2022/06/05 06:14:00;;;;;;;0.7;0.7;;;;;;;18.0;100.0;101190;;;;
2022/06/05 06:15:00;;;;;;;0.7;0.7;;;;;;;18.0;100.0;101190;;;;
2022/06/05 06:16:00;;;;;;;0.7;0.7;;;;;;;18.2;100.0;101190;;;;
2022/06/05 06:17:00;;;;;;;0.7;0.7;;;;;;;18.2;100.0;101190;;;;
2022/06/05 06:18:00;;;;;;;0.7;0.7;;;;;;;18.3;100.0;101190;;;;
2022/06/05 06:19:00;;;;;;;0.7;0.7;;;;;;;18.3;100.0;101190;;;;
2022/06/05 06:20:00;;;;;;;0.7;0.7;;;;;;;18.2;100.0;101180;;;;
2022/06/05 06:21:00;;;;;;;0.7;0.7;;;;;;;18.2;100.0;101180;;;;
2022/06/05 06:22:00;;;;;;;0.7;0.7;;;;;;;18.2;100.0;101180;;;;
2022/06/05 06:23:00;;;;;;;0.9;0.9;;;;;;;18.2;100.0;101180;;;;
2022/06/05 06:24:00;;;;;;;0.9;0.9;;;;;;;18.4;100.0;101180;;;;
2022/06/05 06:25:00;;;;;;;0.9;0.9;;;;;;;18.4;100.0;101180;;;;
2022/06/05 06:26:03;;;;;;;0.9;0.9;;;;;;;18.2;100.0;101180;;;;
2022/06/05 06:27:00;;;;;;;0.9;0.9;;;;;;;18.2;100.0;101180;;;;
2022/06/05 06:28:00;;;;;;;0.9;0.9;;;;;;;18.2;100.0;101170;;;;
2022/06/05 06:29:00;;;;;;;0.9;0.9;;;;;;;18.2;100.0;101170;;;;